sensor_id;sensor_type;location;lat;lon;timestamp;P1;durP1;ratioP1;P2;durP2;ratioP2
24223;SDS011;12359;49.716;9.212;2022-08-21T00:00:24;7.32;;;5.57;;
24223;SDS011;12359;49.716;9.212;2022-08-21T00:02:53;6.55;;;5.90;;
24223;SDS011;12359;49.716;9.212;2022-08-21T00:05:22;8.60;;;5.28;;
24223;SDS011;12359;49.716;9.212;2022-08-21T00:07:49;5.85;;;5.10;;
24223;SDS011;12359;49.716;9.212;2022-08-21T00:10:16;7.00;;;5.38;;
24223;SDS011;12359;49.716;9.212;2022-08-21T00:12:42;6.70;;;5.40;;
24223;SDS011;12359;49.716;9.212;2022-08-21T00:15:10;7.50;;;5.32;;
24223;SDS011;12359;49.716;9.212;2022-08-21T00:17:40;10.90;;;5.80;;
24223;SDS011;12359;49.716;9.212;2022-08-21T00:20:06;7.45;;;5.60;;
24223;SDS011;12359;49.716;9.212;2022-08-21T00:22:34;5.72;;;5.18;;
24223;SDS011;12359;49.716;9.212;2022-08-21T00:25:00;7.10;;;6.00;;
24223;SDS011;12359;49.716;9.212;2022-08-21T00:27:27;6.53;;;5.93;;
24223;SDS011;12359;49.716;9.212;2022-08-21T00:29:53;7.55;;;6.22;;
24223;SDS011;12359;49.716;9.212;2022-08-21T00:32:19;6.63;;;5.90;;
24223;SDS011;12359;49.716;9.212;2022-08-21T00:34:49;6.50;;;5.82;;
24223;SDS011;12359;49.716;9.212;2022-08-21T00:37:16;7.40;;;6.07;;
24223;SDS011;12359;49.716;9.212;2022-08-21T00:39:41;6.95;;;6.15;;
24223;SDS011;12359;49.716;9.212;2022-08-21T00:42:07;6.90;;;5.93;;
24223;SDS011;12359;49.716;9.212;2022-08-21T00:44:34;8.98;;;6.70;;
24223;SDS011;12359;49.716;9.212;2022-08-21T00:47:00;7.05;;;5.53;;
24223;SDS011;12359;49.716;9.212;2022-08-21T00:49:26;7.95;;;5.53;;
24223;SDS011;12359;49.716;9.212;2022-08-21T00:51:55;6.07;;;5.47;;
24223;SDS011;12359;49.716;9.212;2022-08-21T00:54:24;7.05;;;6.35;;
24223;SDS011;12359;49.716;9.212;2022-08-21T00:56:55;10.57;;;6.00;;
24223;SDS011;12359;49.716;9.212;2022-08-21T00:59:25;6.75;;;6.05;;
24223;SDS011;12359;49.716;9.212;2022-08-21T01:01:52;8.00;;;6.18;;
24223;SDS011;12359;49.716;9.212;2022-08-21T01:04:18;7.60;;;5.95;;
24223;SDS011;12359;49.716;9.212;2022-08-21T01:06:45;6.60;;;5.63;;
24223;SDS011;12359;49.716;9.212;2022-08-21T01:09:12;9.18;;;6.00;;
24223;SDS011;12359;49.716;9.212;2022-08-21T01:11:38;8.02;;;6.60;;
24223;SDS011;12359;49.716;9.212;2022-08-21T01:14:06;8.63;;;6.05;;
24223;SDS011;12359;49.716;9.212;2022-08-21T01:16:32;8.07;;;5.68;;
24223;SDS011;12359;49.716;9.212;2022-08-21T01:18:58;9.73;;;6.32;;
24223;SDS011;12359;49.716;9.212;2022-08-21T01:21:25;7.00;;;6.18;;
24223;SDS011;12359;49.716;9.212;2022-08-21T01:23:52;7.07;;;6.35;;
24223;SDS011;12359;49.716;9.212;2022-08-21T01:26:23;7.80;;;5.78;;
24223;SDS011;12359;49.716;9.212;2022-08-21T01:28:56;9.20;;;5.53;;
24223;SDS011;12359;49.716;9.212;2022-08-21T01:31:29;7.57;;;6.40;;
24223;SDS011;12359;49.716;9.212;2022-08-21T01:33:56;8.18;;;6.93;;
24223;SDS011;12359;49.716;9.212;2022-08-21T01:36:22;6.63;;;5.40;;
24223;SDS011;12359;49.716;9.212;2022-08-21T01:38:48;7.40;;;6.38;;
24223;SDS011;12359;49.716;9.212;2022-08-21T01:41:15;8.57;;;5.50;;
24223;SDS011;12359;49.716;9.212;2022-08-21T01:43:42;20.00;;;7.05;;
24223;SDS011;12359;49.716;9.212;2022-08-21T01:46:08;8.23;;;5.68;;
24223;SDS011;12359;49.716;9.212;2022-08-21T01:48:35;7.60;;;6.80;;
24223;SDS011;12359;49.716;9.212;2022-08-21T01:51:01;8.32;;;6.47;;
24223;SDS011;12359;49.716;9.212;2022-08-21T01:53:27;9.40;;;6.88;;
24223;SDS011;12359;49.716;9.212;2022-08-21T01:55:53;7.60;;;6.35;;
24223;SDS011;12359;49.716;9.212;2022-08-21T01:58:18;7.25;;;6.53;;
24223;SDS011;12359;49.716;9.212;2022-08-21T02:00:44;8.27;;;6.68;;
24223;SDS011;12359;49.716;9.212;2022-08-21T02:03:10;9.35;;;6.95;;
24223;SDS011;12359;49.716;9.212;2022-08-21T02:05:35;6.70;;;6.03;;
24223;SDS011;12359;49.716;9.212;2022-08-21T02:08:01;8.65;;;5.70;;
24223;SDS011;12359;49.716;9.212;2022-08-21T02:10:28;7.00;;;6.22;;
24223;SDS011;12359;49.716;9.212;2022-08-21T02:12:55;8.50;;;6.45;;
24223;SDS011;12359;49.716;9.212;2022-08-21T02:15:22;6.28;;;5.55;;
24223;SDS011;12359;49.716;9.212;2022-08-21T02:17:49;8.48;;;6.43;;
24223;SDS011;12359;49.716;9.212;2022-08-21T02:20:22;14.52;;;7.15;;
24223;SDS011;12359;49.716;9.212;2022-08-21T02:22:52;6.07;;;5.57;;
24223;SDS011;12359;49.716;9.212;2022-08-21T02:25:20;7.30;;;6.25;;
24223;SDS011;12359;49.716;9.212;2022-08-21T02:27:47;7.65;;;5.68;;
24223;SDS011;12359;49.716;9.212;2022-08-21T02:30:18;10.25;;;7.75;;
24223;SDS011;12359;49.716;9.212;2022-08-21T02:35:15;8.50;;;5.47;;
24223;SDS011;12359;49.716;9.212;2022-08-21T02:37:45;7.72;;;6.53;;
24223;SDS011;12359;49.716;9.212;2022-08-21T02:40:15;8.15;;;6.68;;
24223;SDS011;12359;49.716;9.212;2022-08-21T02:42:42;10.73;;;6.82;;
24223;SDS011;12359;49.716;9.212;2022-08-21T02:45:09;11.05;;;6.60;;
24223;SDS011;12359;49.716;9.212;2022-08-21T02:47:35;7.30;;;5.28;;
24223;SDS011;12359;49.716;9.212;2022-08-21T02:50:02;9.18;;;6.20;;
24223;SDS011;12359;49.716;9.212;2022-08-21T02:52:28;7.45;;;6.63;;
24223;SDS011;12359;49.716;9.212;2022-08-21T02:54:54;6.28;;;5.57;;
24223;SDS011;12359;49.716;9.212;2022-08-21T02:57:20;9.43;;;6.75;;
24223;SDS011;12359;49.716;9.212;2022-08-21T02:59:45;6.72;;;6.13;;
24223;SDS011;12359;49.716;9.212;2022-08-21T03:02:12;7.22;;;6.32;;
24223;SDS011;12359;49.716;9.212;2022-08-21T03:04:37;7.82;;;6.40;;
24223;SDS011;12359;49.716;9.212;2022-08-21T03:07:03;6.57;;;5.95;;
24223;SDS011;12359;49.716;9.212;2022-08-21T03:09:29;11.15;;;6.55;;
24223;SDS011;12359;49.716;9.212;2022-08-21T03:11:55;7.47;;;6.22;;
24223;SDS011;12359;49.716;9.212;2022-08-21T03:14:20;6.88;;;5.80;;
24223;SDS011;12359;49.716;9.212;2022-08-21T03:16:46;6.93;;;6.22;;
24223;SDS011;12359;49.716;9.212;2022-08-21T03:19:12;7.03;;;5.65;;
24223;SDS011;12359;49.716;9.212;2022-08-21T03:21:38;7.25;;;6.53;;
24223;SDS011;12359;49.716;9.212;2022-08-21T03:24:03;9.93;;;6.63;;
24223;SDS011;12359;49.716;9.212;2022-08-21T03:26:29;8.85;;;6.20;;
24223;SDS011;12359;49.716;9.212;2022-08-21T03:28:55;8.95;;;6.97;;
24223;SDS011;12359;49.716;9.212;2022-08-21T03:31:22;7.95;;;6.75;;
24223;SDS011;12359;49.716;9.212;2022-08-21T03:33:49;7.80;;;5.43;;
24223;SDS011;12359;49.716;9.212;2022-08-21T03:36:15;8.77;;;6.20;;
24223;SDS011;12359;49.716;9.212;2022-08-21T03:38:41;11.85;;;6.68;;
24223;SDS011;12359;49.716;9.212;2022-08-21T03:41:07;11.73;;;6.65;;
24223;SDS011;12359;49.716;9.212;2022-08-21T03:43:33;7.57;;;6.50;;
24223;SDS011;12359;49.716;9.212;2022-08-21T03:46:00;6.97;;;5.75;;
24223;SDS011;12359;49.716;9.212;2022-08-21T03:48:28;10.52;;;6.82;;
24223;SDS011;12359;49.716;9.212;2022-08-21T03:50:54;7.65;;;5.97;;
24223;SDS011;12359;49.716;9.212;2022-08-21T03:53:20;7.05;;;6.15;;
24223;SDS011;12359;49.716;9.212;2022-08-21T03:55:46;8.30;;;6.28;;
24223;SDS011;12359;49.716;9.212;2022-08-21T03:58:16;10.38;;;6.43;;
24223;SDS011;12359;49.716;9.212;2022-08-21T04:00:45;12.88;;;7.03;;
24223;SDS011;12359;49.716;9.212;2022-08-21T04:03:14;8.10;;;6.93;;
24223;SDS011;12359;49.716;9.212;2022-08-21T04:05:40;11.82;;;6.65;;
24223;SDS011;12359;49.716;9.212;2022-08-21T04:08:06;9.52;;;6.68;;
24223;SDS011;12359;49.716;9.212;2022-08-21T04:10:34;8.60;;;6.82;;
24223;SDS011;12359;49.716;9.212;2022-08-21T04:13:01;9.15;;;6.32;;
24223;SDS011;12359;49.716;9.212;2022-08-21T04:15:27;8.15;;;6.65;;
24223;SDS011;12359;49.716;9.212;2022-08-21T04:17:53;8.75;;;6.85;;
24223;SDS011;12359;49.716;9.212;2022-08-21T04:20:20;7.80;;;6.53;;
24223;SDS011;12359;49.716;9.212;2022-08-21T04:22:46;7.63;;;6.65;;
24223;SDS011;12359;49.716;9.212;2022-08-21T04:25:14;8.00;;;6.55;;
24223;SDS011;12359;49.716;9.212;2022-08-21T04:27:41;9.55;;;6.78;;
24223;SDS011;12359;49.716;9.212;2022-08-21T04:30:07;9.65;;;6.60;;
24223;SDS011;12359;49.716;9.212;2022-08-21T04:32:34;7.90;;;5.93;;
24223;SDS011;12359;49.716;9.212;2022-08-21T04:35:03;9.68;;;6.80;;
24223;SDS011;12359;49.716;9.212;2022-08-21T04:37:31;11.05;;;7.00;;
24223;SDS011;12359;49.716;9.212;2022-08-21T04:39:57;7.75;;;7.00;;
24223;SDS011;12359;49.716;9.212;2022-08-21T04:42:24;8.80;;;6.30;;
24223;SDS011;12359;49.716;9.212;2022-08-21T04:44:50;10.20;;;7.70;;
24223;SDS011;12359;49.716;9.212;2022-08-21T04:47:17;13.52;;;6.32;;
24223;SDS011;12359;49.716;9.212;2022-08-21T04:49:43;8.50;;;7.18;;
24223;SDS011;12359;49.716;9.212;2022-08-21T04:52:09;7.82;;;6.55;;
24223;SDS011;12359;49.716;9.212;2022-08-21T04:54:36;7.20;;;6.47;;
24223;SDS011;12359;49.716;9.212;2022-08-21T04:57:05;7.32;;;6.60;;
24223;SDS011;12359;49.716;9.212;2022-08-21T04:59:39;8.77;;;6.55;;
24223;SDS011;12359;49.716;9.212;2022-08-21T05:02:08;8.18;;;7.15;;
24223;SDS011;12359;49.716;9.212;2022-08-21T05:04:36;8.18;;;7.10;;
24223;SDS011;12359;49.716;9.212;2022-08-21T05:07:09;10.05;;;6.93;;
24223;SDS011;12359;49.716;9.212;2022-08-21T05:09:40;7.35;;;5.85;;
24223;SDS011;12359;49.716;9.212;2022-08-21T05:12:06;7.30;;;6.07;;
24223;SDS011;12359;49.716;9.212;2022-08-21T05:14:32;6.05;;;5.43;;
24223;SDS011;12359;49.716;9.212;2022-08-21T05:16:58;7.82;;;6.57;;
24223;SDS011;12359;49.716;9.212;2022-08-21T05:19:24;7.72;;;6.25;;
24223;SDS011;12359;49.716;9.212;2022-08-21T05:21:50;8.73;;;6.43;;
24223;SDS011;12359;49.716;9.212;2022-08-21T05:24:16;6.03;;;5.53;;
24223;SDS011;12359;49.716;9.212;2022-08-21T05:26:43;8.43;;;6.20;;
24223;SDS011;12359;49.716;9.212;2022-08-21T05:29:09;6.90;;;5.63;;
24223;SDS011;12359;49.716;9.212;2022-08-21T05:31:36;7.57;;;5.95;;
24223;SDS011;12359;49.716;9.212;2022-08-21T05:34:02;7.07;;;6.38;;
24223;SDS011;12359;49.716;9.212;2022-08-21T05:36:28;7.13;;;6.15;;
24223;SDS011;12359;49.716;9.212;2022-08-21T05:38:54;8.18;;;7.18;;
24223;SDS011;12359;49.716;9.212;2022-08-21T05:41:20;9.52;;;6.68;;
24223;SDS011;12359;49.716;9.212;2022-08-21T05:43:46;8.38;;;7.28;;
24223;SDS011;12359;49.716;9.212;2022-08-21T05:46:11;7.97;;;5.88;;
24223;SDS011;12359;49.716;9.212;2022-08-21T05:48:37;10.32;;;7.20;;
24223;SDS011;12359;49.716;9.212;2022-08-21T05:51:07;9.98;;;7.28;;
24223;SDS011;12359;49.716;9.212;2022-08-21T05:53:35;8.48;;;6.80;;
24223;SDS011;12359;49.716;9.212;2022-08-21T05:56:02;11.55;;;7.22;;
24223;SDS011;12359;49.716;9.212;2022-08-21T05:58:29;8.07;;;7.00;;
24223;SDS011;12359;49.716;9.212;2022-08-21T06:00:56;8.00;;;6.30;;
24223;SDS011;12359;49.716;9.212;2022-08-21T06:03:25;10.52;;;7.63;;
24223;SDS011;12359;49.716;9.212;2022-08-21T06:05:52;8.65;;;6.78;;
24223;SDS011;12359;49.716;9.212;2022-08-21T06:08:19;9.55;;;7.00;;
24223;SDS011;12359;49.716;9.212;2022-08-21T06:10:45;6.80;;;5.72;;
24223;SDS011;12359;49.716;9.212;2022-08-21T06:13:12;6.18;;;5.40;;
24223;SDS011;12359;49.716;9.212;2022-08-21T06:15:40;6.88;;;5.68;;
24223;SDS011;12359;49.716;9.212;2022-08-21T06:18:06;9.20;;;5.75;;
24223;SDS011;12359;49.716;9.212;2022-08-21T06:20:32;6.05;;;5.28;;
24223;SDS011;12359;49.716;9.212;2022-08-21T06:22:58;4.78;;;4.28;;
24223;SDS011;12359;49.716;9.212;2022-08-21T06:25:23;6.60;;;5.43;;
24223;SDS011;12359;49.716;9.212;2022-08-21T06:27:49;6.85;;;5.10;;
24223;SDS011;12359;49.716;9.212;2022-08-21T06:30:16;5.55;;;4.40;;
24223;SDS011;12359;49.716;9.212;2022-08-21T06:32:42;6.28;;;4.80;;
24223;SDS011;12359;49.716;9.212;2022-08-21T06:35:09;6.18;;;4.80;;
24223;SDS011;12359;49.716;9.212;2022-08-21T06:37:36;4.93;;;4.25;;
24223;SDS011;12359;49.716;9.212;2022-08-21T06:40:03;6.18;;;4.72;;
24223;SDS011;12359;49.716;9.212;2022-08-21T06:42:30;4.85;;;4.32;;
24223;SDS011;12359;49.716;9.212;2022-08-21T06:44:56;5.43;;;4.90;;
24223;SDS011;12359;49.716;9.212;2022-08-21T06:47:22;5.65;;;4.88;;
24223;SDS011;12359;49.716;9.212;2022-08-21T06:49:47;5.88;;;4.55;;
24223;SDS011;12359;49.716;9.212;2022-08-21T06:52:13;4.68;;;4.25;;
24223;SDS011;12359;49.716;9.212;2022-08-21T06:54:39;7.80;;;3.80;;
24223;SDS011;12359;49.716;9.212;2022-08-21T06:57:05;6.05;;;4.63;;
24223;SDS011;12359;49.716;9.212;2022-08-21T06:59:31;6.53;;;4.85;;
24223;SDS011;12359;49.716;9.212;2022-08-21T07:01:58;4.38;;;3.97;;
24223;SDS011;12359;49.716;9.212;2022-08-21T07:04:24;4.07;;;3.67;;
24223;SDS011;12359;49.716;9.212;2022-08-21T07:06:50;4.90;;;4.30;;
24223;SDS011;12359;49.716;9.212;2022-08-21T07:09:16;5.38;;;4.57;;
24223;SDS011;12359;49.716;9.212;2022-08-21T07:11:42;4.85;;;4.05;;
24223;SDS011;12359;49.716;9.212;2022-08-21T07:14:10;5.07;;;4.55;;
24223;SDS011;12359;49.716;9.212;2022-08-21T07:16:36;7.85;;;5.28;;
24223;SDS011;12359;49.716;9.212;2022-08-21T07:19:01;5.63;;;4.40;;
24223;SDS011;12359;49.716;9.212;2022-08-21T07:21:27;5.55;;;4.95;;
24223;SDS011;12359;49.716;9.212;2022-08-21T07:23:53;7.10;;;4.43;;
24223;SDS011;12359;49.716;9.212;2022-08-21T07:26:20;8.43;;;5.03;;
24223;SDS011;12359;49.716;9.212;2022-08-21T07:28:48;8.23;;;4.47;;
24223;SDS011;12359;49.716;9.212;2022-08-21T07:31:15;6.50;;;5.13;;
24223;SDS011;12359;49.716;9.212;2022-08-21T07:33:43;6.32;;;4.20;;
24223;SDS011;12359;49.716;9.212;2022-08-21T07:36:10;4.63;;;4.07;;
24223;SDS011;12359;49.716;9.212;2022-08-21T07:38:36;8.82;;;4.78;;
24223;SDS011;12359;49.716;9.212;2022-08-21T07:41:02;4.50;;;4.10;;
24223;SDS011;12359;49.716;9.212;2022-08-21T07:43:37;4.40;;;4.00;;
24223;SDS011;12359;49.716;9.212;2022-08-21T07:46:03;5.97;;;4.93;;
24223;SDS011;12359;49.716;9.212;2022-08-21T07:48:29;5.25;;;4.60;;
24223;SDS011;12359;49.716;9.212;2022-08-21T07:50:54;4.07;;;3.63;;
24223;SDS011;12359;49.716;9.212;2022-08-21T07:53:21;5.22;;;4.70;;
24223;SDS011;12359;49.716;9.212;2022-08-21T07:55:46;4.88;;;4.20;;
24223;SDS011;12359;49.716;9.212;2022-08-21T07:58:12;5.68;;;4.97;;
24223;SDS011;12359;49.716;9.212;2022-08-21T08:00:38;7.57;;;4.32;;
24223;SDS011;12359;49.716;9.212;2022-08-21T08:03:05;7.60;;;4.35;;
24223;SDS011;12359;49.716;9.212;2022-08-21T08:05:30;6.88;;;5.38;;
24223;SDS011;12359;49.716;9.212;2022-08-21T08:07:57;5.43;;;4.28;;
24223;SDS011;12359;49.716;9.212;2022-08-21T08:10:24;5.97;;;4.80;;
24223;SDS011;12359;49.716;9.212;2022-08-21T08:12:50;6.25;;;4.57;;
24223;SDS011;12359;49.716;9.212;2022-08-21T08:15:18;5.30;;;4.63;;
24223;SDS011;12359;49.716;9.212;2022-08-21T08:17:45;6.47;;;4.22;;
24223;SDS011;12359;49.716;9.212;2022-08-21T08:20:11;6.60;;;4.90;;
24223;SDS011;12359;49.716;9.212;2022-08-21T08:22:38;6.22;;;4.40;;
24223;SDS011;12359;49.716;9.212;2022-08-21T08:25:06;7.43;;;4.60;;
24223;SDS011;12359;49.716;9.212;2022-08-21T08:27:34;6.25;;;4.75;;
24223;SDS011;12359;49.716;9.212;2022-08-21T08:29:59;4.90;;;4.07;;
24223;SDS011;12359;49.716;9.212;2022-08-21T08:32:25;6.70;;;4.28;;
24223;SDS011;12359;49.716;9.212;2022-08-21T08:34:51;6.80;;;4.28;;
24223;SDS011;12359;49.716;9.212;2022-08-21T08:37:17;7.38;;;3.53;;
24223;SDS011;12359;49.716;9.212;2022-08-21T08:39:45;3.90;;;3.58;;
24223;SDS011;12359;49.716;9.212;2022-08-21T08:42:12;5.60;;;3.17;;
24223;SDS011;12359;49.716;9.212;2022-08-21T08:44:43;6.25;;;3.47;;
24223;SDS011;12359;49.716;9.212;2022-08-21T08:47:10;5.55;;;4.05;;
24223;SDS011;12359;49.716;9.212;2022-08-21T08:49:47;6.30;;;4.00;;
24223;SDS011;12359;49.716;9.212;2022-08-21T08:52:30;4.10;;;3.40;;
24223;SDS011;12359;49.716;9.212;2022-08-21T08:55:09;5.43;;;4.00;;
24223;SDS011;12359;49.716;9.212;2022-08-21T08:57:44;4.57;;;3.75;;
24223;SDS011;12359;49.716;9.212;2022-08-21T09:00:13;7.82;;;3.88;;
24223;SDS011;12359;49.716;9.212;2022-08-21T09:02:43;7.38;;;4.10;;
24223;SDS011;12359;49.716;9.212;2022-08-21T09:05:15;6.03;;;4.25;;
24223;SDS011;12359;49.716;9.212;2022-08-21T09:24:59;7.20;;;3.20;;
24223;SDS011;12359;49.716;9.212;2022-08-21T09:27:33;4.20;;;3.10;;
24223;SDS011;12359;49.716;9.212;2022-08-21T09:29:59;8.70;;;3.67;;
24223;SDS011;12359;49.716;9.212;2022-08-21T09:32:29;6.97;;;3.03;;
24223;SDS011;12359;49.716;9.212;2022-08-21T09:37:26;4.07;;;2.83;;
24223;SDS011;12359;49.716;9.212;2022-08-21T09:39:54;5.82;;;3.35;;
24223;SDS011;12359;49.716;9.212;2022-08-21T09:42:29;9.38;;;3.17;;
24223;SDS011;12359;49.716;9.212;2022-08-21T09:45:33;4.00;;;2.97;;
24223;SDS011;12359;49.716;9.212;2022-08-21T09:47:51;5.47;;;3.00;;
24223;SDS011;12359;49.716;9.212;2022-08-21T09:50:19;7.22;;;3.55;;
24223;SDS011;12359;49.716;9.212;2022-08-21T09:52:51;4.93;;;3.42;;
24223;SDS011;12359;49.716;9.212;2022-08-21T09:55:33;3.67;;;3.05;;
24223;SDS011;12359;49.716;9.212;2022-08-21T09:58:21;5.03;;;2.55;;
24223;SDS011;12359;49.716;9.212;2022-08-21T10:00:58;5.93;;;3.45;;
24223;SDS011;12359;49.716;9.212;2022-08-21T10:03:25;4.53;;;3.13;;
24223;SDS011;12359;49.716;9.212;2022-08-21T10:05:53;7.47;;;3.65;;
24223;SDS011;12359;49.716;9.212;2022-08-21T10:08:30;7.18;;;3.90;;
24223;SDS011;12359;49.716;9.212;2022-08-21T10:11:02;9.13;;;3.33;;
24223;SDS011;12359;49.716;9.212;2022-08-21T10:13:31;5.53;;;3.28;;
24223;SDS011;12359;49.716;9.212;2022-08-21T10:16:27;3.85;;;2.83;;
24223;SDS011;12359;49.716;9.212;2022-08-21T10:36:18;6.95;;;2.92;;
24223;SDS011;12359;49.716;9.212;2022-08-21T10:45:20;5.07;;;3.60;;
24223;SDS011;12359;49.716;9.212;2022-08-21T10:50:24;7.68;;;3.25;;
24223;SDS011;12359;49.716;9.212;2022-08-21T10:53:29;2.75;;;2.50;;
24223;SDS011;12359;49.716;9.212;2022-08-21T10:56:13;5.65;;;3.53;;
24223;SDS011;12359;49.716;9.212;2022-08-21T11:01:44;5.32;;;3.35;;
24223;SDS011;12359;49.716;9.212;2022-08-21T11:04:20;4.53;;;2.78;;
24223;SDS011;12359;49.716;9.212;2022-08-21T11:07:00;6.63;;;3.20;;
24223;SDS011;12359;49.716;9.212;2022-08-21T11:09:32;7.13;;;3.00;;
24223;SDS011;12359;49.716;9.212;2022-08-21T11:17:46;8.45;;;3.67;;
24223;SDS011;12359;49.716;9.212;2022-08-21T11:20:36;4.82;;;3.03;;
24223;SDS011;12359;49.716;9.212;2022-08-21T11:25:41;5.95;;;3.17;;
24223;SDS011;12359;49.716;9.212;2022-08-21T11:28:20;3.42;;;3.05;;
24223;SDS011;12359;49.716;9.212;2022-08-21T11:31:02;8.25;;;3.63;;
24223;SDS011;12359;49.716;9.212;2022-08-21T11:38:52;3.95;;;2.45;;
24223;SDS011;12359;49.716;9.212;2022-08-21T11:46:50;2.55;;;2.22;;
24223;SDS011;12359;49.716;9.212;2022-08-21T11:52:49;7.15;;;3.10;;
24223;SDS011;12359;49.716;9.212;2022-08-21T11:55:26;4.13;;;2.70;;
24223;SDS011;12359;49.716;9.212;2022-08-21T11:58:04;8.05;;;3.47;;
24223;SDS011;12359;49.716;9.212;2022-08-21T12:00:56;4.57;;;2.88;;
24223;SDS011;12359;49.716;9.212;2022-08-21T12:03:31;4.65;;;2.83;;
24223;SDS011;12359;49.716;9.212;2022-08-21T12:08:56;6.57;;;3.28;;
24223;SDS011;12359;49.716;9.212;2022-08-21T12:11:24;4.05;;;2.72;;
24223;SDS011;12359;49.716;9.212;2022-08-21T12:16:35;4.45;;;2.78;;
24223;SDS011;12359;49.716;9.212;2022-08-21T12:19:04;3.78;;;2.88;;
24223;SDS011;12359;49.716;9.212;2022-08-21T12:21:32;3.45;;;3.10;;
24223;SDS011;12359;49.716;9.212;2022-08-21T12:24:16;4.75;;;2.55;;
24223;SDS011;12359;49.716;9.212;2022-08-21T12:29:21;3.60;;;2.75;;
24223;SDS011;12359;49.716;9.212;2022-08-21T12:32:18;3.15;;;2.72;;
24223;SDS011;12359;49.716;9.212;2022-08-21T12:37:42;5.55;;;3.10;;
24223;SDS011;12359;49.716;9.212;2022-08-21T12:40:31;5.53;;;3.15;;
24223;SDS011;12359;49.716;9.212;2022-08-21T12:43:33;5.10;;;3.25;;
24223;SDS011;12359;49.716;9.212;2022-08-21T12:46:14;4.63;;;2.88;;
24223;SDS011;12359;49.716;9.212;2022-08-21T12:48:51;5.13;;;3.22;;
24223;SDS011;12359;49.716;9.212;2022-08-21T12:51:26;4.88;;;2.97;;
24223;SDS011;12359;49.716;9.212;2022-08-21T12:53:57;4.85;;;2.17;;
24223;SDS011;12359;49.716;9.212;2022-08-21T12:56:24;4.72;;;3.25;;
24223;SDS011;12359;49.716;9.212;2022-08-21T12:58:56;4.35;;;2.95;;
24223;SDS011;12359;49.716;9.212;2022-08-21T13:04:03;5.55;;;3.85;;
24223;SDS011;12359;49.716;9.212;2022-08-21T13:06:37;3.47;;;3.17;;
24223;SDS011;12359;49.716;9.212;2022-08-21T13:09:10;5.50;;;2.63;;
24223;SDS011;12359;49.716;9.212;2022-08-21T13:11:39;6.57;;;3.08;;
24223;SDS011;12359;49.716;9.212;2022-08-21T13:14:06;10.18;;;3.53;;
24223;SDS011;12359;49.716;9.212;2022-08-21T13:16:55;4.90;;;3.30;;
24223;SDS011;12359;49.716;9.212;2022-08-21T13:19:22;3.05;;;2.60;;
24223;SDS011;12359;49.716;9.212;2022-08-21T13:21:49;3.58;;;2.22;;
24223;SDS011;12359;49.716;9.212;2022-08-21T13:26:45;5.47;;;3.75;;
24223;SDS011;12359;49.716;9.212;2022-08-21T13:29:14;4.35;;;3.38;;
24223;SDS011;12359;49.716;9.212;2022-08-21T13:31:46;3.30;;;3.00;;
24223;SDS011;12359;49.716;9.212;2022-08-21T13:34:18;4.97;;;3.47;;
24223;SDS011;12359;49.716;9.212;2022-08-21T13:36:47;3.45;;;3.15;;
24223;SDS011;12359;49.716;9.212;2022-08-21T13:39:17;7.03;;;3.10;;
24223;SDS011;12359;49.716;9.212;2022-08-21T13:41:45;2.88;;;2.38;;
24223;SDS011;12359;49.716;9.212;2022-08-21T13:46:39;5.00;;;2.60;;
24223;SDS011;12359;49.716;9.212;2022-08-21T13:49:05;5.30;;;2.97;;
24223;SDS011;12359;49.716;9.212;2022-08-21T13:51:33;4.93;;;3.15;;
24223;SDS011;12359;49.716;9.212;2022-08-21T13:53:59;5.18;;;3.20;;
24223;SDS011;12359;49.716;9.212;2022-08-21T13:58:55;4.15;;;2.83;;
24223;SDS011;12359;49.716;9.212;2022-08-21T14:03:50;4.38;;;3.08;;
24223;SDS011;12359;49.716;9.212;2022-08-21T14:06:20;3.75;;;2.92;;
24223;SDS011;12359;49.716;9.212;2022-08-21T14:08:51;5.63;;;3.03;;
24223;SDS011;12359;49.716;9.212;2022-08-21T14:11:26;7.40;;;3.17;;
24223;SDS011;12359;49.716;9.212;2022-08-21T14:13:58;3.78;;;2.15;;
24223;SDS011;12359;49.716;9.212;2022-08-21T14:16:39;6.90;;;3.35;;
24223;SDS011;12359;49.716;9.212;2022-08-21T14:19:10;6.20;;;3.13;;
24223;SDS011;12359;49.716;9.212;2022-08-21T14:21:42;5.68;;;3.28;;
24223;SDS011;12359;49.716;9.212;2022-08-21T14:24:12;5.65;;;3.58;;
24223;SDS011;12359;49.716;9.212;2022-08-21T14:26:47;3.30;;;3.00;;
24223;SDS011;12359;49.716;9.212;2022-08-21T14:29:24;4.32;;;3.47;;
24223;SDS011;12359;49.716;9.212;2022-08-21T14:31:53;2.75;;;2.40;;
24223;SDS011;12359;49.716;9.212;2022-08-21T14:34:21;3.90;;;2.92;;
24223;SDS011;12359;49.716;9.212;2022-08-21T14:36:49;4.65;;;3.00;;
24223;SDS011;12359;49.716;9.212;2022-08-21T14:39:15;4.93;;;3.63;;
24223;SDS011;12359;49.716;9.212;2022-08-21T14:41:42;5.90;;;3.03;;
24223;SDS011;12359;49.716;9.212;2022-08-21T14:44:08;4.57;;;2.97;;
24223;SDS011;12359;49.716;9.212;2022-08-21T14:46:35;5.60;;;2.60;;
24223;SDS011;12359;49.716;9.212;2022-08-21T14:49:02;6.28;;;3.22;;
24223;SDS011;12359;49.716;9.212;2022-08-21T14:51:28;3.58;;;2.60;;
24223;SDS011;12359;49.716;9.212;2022-08-21T14:53:54;7.95;;;3.22;;
24223;SDS011;12359;49.716;9.212;2022-08-21T14:56:19;2.90;;;2.60;;
24223;SDS011;12359;49.716;9.212;2022-08-21T14:58:46;5.07;;;3.13;;
24223;SDS011;12359;49.716;9.212;2022-08-21T15:01:14;3.80;;;3.10;;
24223;SDS011;12359;49.716;9.212;2022-08-21T15:03:43;5.18;;;2.47;;
24223;SDS011;12359;49.716;9.212;2022-08-21T15:06:10;3.17;;;2.88;;
24223;SDS011;12359;49.716;9.212;2022-08-21T15:08:37;4.85;;;3.03;;
24223;SDS011;12359;49.716;9.212;2022-08-21T15:11:03;4.85;;;2.78;;
24223;SDS011;12359;49.716;9.212;2022-08-21T15:13:30;6.85;;;3.67;;
24223;SDS011;12359;49.716;9.212;2022-08-21T15:15:57;5.97;;;3.08;;
24223;SDS011;12359;49.716;9.212;2022-08-21T15:18:24;3.35;;;2.75;;
24223;SDS011;12359;49.716;9.212;2022-08-21T15:20:50;4.72;;;2.63;;
24223;SDS011;12359;49.716;9.212;2022-08-21T15:23:17;4.05;;;2.60;;
24223;SDS011;12359;49.716;9.212;2022-08-21T15:25:44;4.13;;;3.20;;
24223;SDS011;12359;49.716;9.212;2022-08-21T15:28:11;7.68;;;3.70;;
24223;SDS011;12359;49.716;9.212;2022-08-21T15:30:39;3.53;;;2.78;;
24223;SDS011;12359;49.716;9.212;2022-08-21T15:33:05;8.43;;;2.88;;
24223;SDS011;12359;49.716;9.212;2022-08-21T15:35:32;6.45;;;3.28;;
24223;SDS011;12359;49.716;9.212;2022-08-21T15:37:57;6.38;;;3.13;;
24223;SDS011;12359;49.716;9.212;2022-08-21T15:40:23;4.45;;;3.60;;
24223;SDS011;12359;49.716;9.212;2022-08-21T15:42:50;5.00;;;3.47;;
24223;SDS011;12359;49.716;9.212;2022-08-21T15:45:20;3.90;;;2.72;;
24223;SDS011;12359;49.716;9.212;2022-08-21T15:47:46;4.13;;;3.10;;
24223;SDS011;12359;49.716;9.212;2022-08-21T15:50:14;5.72;;;3.00;;
24223;SDS011;12359;49.716;9.212;2022-08-21T15:52:39;2.75;;;2.42;;
24223;SDS011;12359;49.716;9.212;2022-08-21T15:55:06;3.38;;;2.47;;
24223;SDS011;12359;49.716;9.212;2022-08-21T15:57:32;8.77;;;2.60;;
24223;SDS011;12359;49.716;9.212;2022-08-21T16:00:04;4.65;;;3.20;;
24223;SDS011;12359;49.716;9.212;2022-08-21T16:02:39;5.85;;;2.55;;
24223;SDS011;12359;49.716;9.212;2022-08-21T16:05:07;5.03;;;3.33;;
24223;SDS011;12359;49.716;9.212;2022-08-21T16:07:35;3.60;;;2.85;;
24223;SDS011;12359;49.716;9.212;2022-08-21T16:10:01;5.07;;;3.03;;
24223;SDS011;12359;49.716;9.212;2022-08-21T16:12:32;5.18;;;3.13;;
24223;SDS011;12359;49.716;9.212;2022-08-21T16:15:03;4.22;;;2.95;;
24223;SDS011;12359;49.716;9.212;2022-08-21T16:17:32;5.55;;;2.92;;
24223;SDS011;12359;49.716;9.212;2022-08-21T16:20:00;6.43;;;3.15;;
24223;SDS011;12359;49.716;9.212;2022-08-21T16:22:28;4.63;;;2.58;;
24223;SDS011;12359;49.716;9.212;2022-08-21T16:24:54;4.63;;;2.88;;
24223;SDS011;12359;49.716;9.212;2022-08-21T16:27:19;9.77;;;2.78;;
24223;SDS011;12359;49.716;9.212;2022-08-21T16:29:45;4.53;;;2.90;;
24223;SDS011;12359;49.716;9.212;2022-08-21T16:32:12;4.30;;;2.67;;
24223;SDS011;12359;49.716;9.212;2022-08-21T16:34:39;6.32;;;2.40;;